sensor_id;sensor_type;location;lat;lon;timestamp;P1;durP1;ratioP1;P2;durP2;ratioP2
72649;SDS011;61467;50.674;4.618;2023-05-09T00:04:24;10.07;;;4.47;;
72649;SDS011;61467;50.674;4.618;2023-05-09T00:07:27;10.02;;;4.80;;
72649;SDS011;61467;50.674;4.618;2023-05-09T00:10:16;8.33;;;4.17;;
72649;SDS011;61467;50.674;4.618;2023-05-09T00:16:37;10.20;;;4.40;;
72649;SDS011;61467;50.674;4.618;2023-05-09T00:29:08;10.05;;;4.85;;
72649;SDS011;61467;50.674;4.618;2023-05-09T00:32:11;10.05;;;4.75;;
72649;SDS011;61467;50.674;4.618;2023-05-09T00:34:55;8.63;;;4.60;;
72649;SDS011;61467;50.674;4.618;2023-05-09T00:37:54;8.93;;;4.18;;
72649;SDS011;61467;50.674;4.618;2023-05-09T00:40:49;12.40;;;5.00;;
72649;SDS011;61467;50.674;4.618;2023-05-09T00:47:13;9.70;;;4.47;;
72649;SDS011;61467;50.674;4.618;2023-05-09T00:50:17;10.65;;;5.03;;
72649;SDS011;61467;50.674;4.618;2023-05-09T00:53:15;9.65;;;5.22;;
72649;SDS011;61467;50.674;4.618;2023-05-09T00:56:24;10.40;;;4.87;;
72649;SDS011;61467;50.674;4.618;2023-05-09T00:59:32;10.13;;;4.70;;
72649;SDS011;61467;50.674;4.618;2023-05-09T01:02:37;10.10;;;4.95;;
72649;SDS011;61467;50.674;4.618;2023-05-09T01:08:46;9.80;;;5.13;;
72649;SDS011;61467;50.674;4.618;2023-05-09T01:11:55;10.83;;;5.00;;
72649;SDS011;61467;50.674;4.618;2023-05-09T01:27:58;12.03;;;4.70;;
72649;SDS011;61467;50.674;4.618;2023-05-09T01:34:14;9.25;;;4.60;;
72649;SDS011;61467;50.674;4.618;2023-05-09T01:37:19;10.38;;;4.95;;
72649;SDS011;61467;50.674;4.618;2023-05-09T01:43:17;10.37;;;4.63;;
72649;SDS011;61467;50.674;4.618;2023-05-09T01:46:20;11.35;;;5.28;;
72649;SDS011;61467;50.674;4.618;2023-05-09T01:55:53;10.52;;;4.30;;
72649;SDS011;61467;50.674;4.618;2023-05-09T01:59:04;8.13;;;3.90;;
72649;SDS011;61467;50.674;4.618;2023-05-09T02:02:09;9.30;;;4.72;;
72649;SDS011;61467;50.674;4.618;2023-05-09T02:08:29;11.85;;;4.72;;
72649;SDS011;61467;50.674;4.618;2023-05-09T02:11:39;10.32;;;4.80;;
72649;SDS011;61467;50.674;4.618;2023-05-09T02:14:40;9.33;;;4.73;;
72649;SDS011;61467;50.674;4.618;2023-05-09T02:20:44;10.65;;;4.47;;
72649;SDS011;61467;50.674;4.618;2023-05-09T02:26:42;10.20;;;5.10;;
72649;SDS011;61467;50.674;4.618;2023-05-09T03:05:54;12.40;;;4.95;;
72649;SDS011;61467;50.674;4.618;2023-05-09T03:08:46;10.77;;;5.47;;
72649;SDS011;61467;50.674;4.618;2023-05-09T03:11:55;10.90;;;4.97;;
72649;SDS011;61467;50.674;4.618;2023-05-09T03:15:02;9.45;;;5.03;;
72649;SDS011;61467;50.674;4.618;2023-05-09T03:18:14;9.52;;;4.40;;
72649;SDS011;61467;50.674;4.618;2023-05-09T03:24:28;10.95;;;4.80;;
72649;SDS011;61467;50.674;4.618;2023-05-09T03:27:30;10.97;;;4.77;;
72649;SDS011;61467;50.674;4.618;2023-05-09T03:30:30;9.50;;;4.60;;
72649;SDS011;61467;50.674;4.618;2023-05-09T03:33:25;10.80;;;4.93;;
72649;SDS011;61467;50.674;4.618;2023-05-09T03:36:20;9.23;;;4.57;;
72649;SDS011;61467;50.674;4.618;2023-05-09T03:39:17;10.35;;;5.05;;
72649;SDS011;61467;50.674;4.618;2023-05-09T03:42:02;10.03;;;4.93;;
72649;SDS011;61467;50.674;4.618;2023-05-09T03:45:11;10.02;;;5.28;;
72649;SDS011;61467;50.674;4.618;2023-05-09T03:48:20;11.30;;;5.40;;
72649;SDS011;61467;50.674;4.618;2023-05-09T03:54:42;9.52;;;4.38;;
72649;SDS011;61467;50.674;4.618;2023-05-09T03:57:42;12.10;;;4.80;;
72649;SDS011;61467;50.674;4.618;2023-05-09T04:03:34;8.90;;;4.97;;
72649;SDS011;61467;50.674;4.618;2023-05-09T04:06:21;8.98;;;4.78;;
72649;SDS011;61467;50.674;4.618;2023-05-09T04:09:13;8.32;;;3.40;;
72649;SDS011;61467;50.674;4.618;2023-05-09T04:18:24;11.60;;;4.22;;
72649;SDS011;61467;50.674;4.618;2023-05-09T04:21:19;9.57;;;4.90;;
72649;SDS011;61467;50.674;4.618;2023-05-09T04:24:19;12.50;;;4.93;;
72649;SDS011;61467;50.674;4.618;2023-05-09T04:27:00;13.13;;;5.10;;
72649;SDS011;61467;50.674;4.618;2023-05-09T04:30:10;10.48;;;5.10;;
72649;SDS011;61467;50.674;4.618;2023-05-09T04:36:33;9.40;;;4.22;;
72649;SDS011;61467;50.674;4.618;2023-05-09T04:39:09;12.65;;;4.47;;
72649;SDS011;61467;50.674;4.618;2023-05-09T04:41:42;9.47;;;4.40;;
72649;SDS011;61467;50.674;4.618;2023-05-09T04:44:37;9.65;;;3.85;;
72649;SDS011;61467;50.674;4.618;2023-05-09T04:47:05;10.73;;;4.45;;
72649;SDS011;61467;50.674;4.618;2023-05-09T04:49:43;9.88;;;4.30;;
72649;SDS011;61467;50.674;4.618;2023-05-09T04:52:17;9.15;;;4.45;;
72649;SDS011;61467;50.674;4.618;2023-05-09T04:54:45;8.40;;;3.77;;
72649;SDS011;61467;50.674;4.618;2023-05-09T04:57:14;8.10;;;3.65;;
72649;SDS011;61467;50.674;4.618;2023-05-09T04:59:43;10.05;;;4.40;;
72649;SDS011;61467;50.674;4.618;2023-05-09T05:02:13;9.50;;;3.75;;
72649;SDS011;61467;50.674;4.618;2023-05-09T05:04:42;10.02;;;4.30;;
72649;SDS011;61467;50.674;4.618;2023-05-09T05:07:09;9.87;;;4.10;;
72649;SDS011;61467;50.674;4.618;2023-05-09T05:09:36;8.38;;;4.07;;
72649;SDS011;61467;50.674;4.618;2023-05-09T05:12:06;8.77;;;4.50;;
72649;SDS011;61467;50.674;4.618;2023-05-09T05:14:35;9.85;;;3.90;;
72649;SDS011;61467;50.674;4.618;2023-05-09T05:17:07;10.30;;;5.10;;
72649;SDS011;61467;50.674;4.618;2023-05-09T05:19:38;7.93;;;4.10;;
72649;SDS011;61467;50.674;4.618;2023-05-09T05:22:15;11.30;;;4.97;;
72649;SDS011;61467;50.674;4.618;2023-05-09T05:24:44;9.88;;;4.70;;
72649;SDS011;61467;50.674;4.618;2023-05-09T05:27:12;14.75;;;5.05;;
72649;SDS011;61467;50.674;4.618;2023-05-09T05:29:41;9.48;;;4.25;;
72649;SDS011;61467;50.674;4.618;2023-05-09T05:32:14;8.40;;;4.60;;
72649;SDS011;61467;50.674;4.618;2023-05-09T05:34:48;9.02;;;4.50;;
72649;SDS011;61467;50.674;4.618;2023-05-09T05:37:22;10.10;;;4.55;;
72649;SDS011;61467;50.674;4.618;2023-05-09T05:39:55;9.23;;;4.20;;
72649;SDS011;61467;50.674;4.618;2023-05-09T05:42:23;10.85;;;4.82;;
72649;SDS011;61467;50.674;4.618;2023-05-09T05:44:54;8.90;;;5.07;;
72649;SDS011;61467;50.674;4.618;2023-05-09T05:47:21;12.15;;;5.07;;
72649;SDS011;61467;50.674;4.618;2023-05-09T05:49:52;10.25;;;5.32;;
72649;SDS011;61467;50.674;4.618;2023-05-09T05:52:39;9.13;;;4.78;;
72649;SDS011;61467;50.674;4.618;2023-05-09T05:55:24;9.65;;;4.82;;
72649;SDS011;61467;50.674;4.618;2023-05-09T05:58:12;10.20;;;4.50;;
72649;SDS011;61467;50.674;4.618;2023-05-09T06:00:52;10.48;;;4.00;;
72649;SDS011;61467;50.674;4.618;2023-05-09T06:03:31;10.00;;;4.82;;
72649;SDS011;61467;50.674;4.618;2023-05-09T06:06:14;10.27;;;4.45;;
72649;SDS011;61467;50.674;4.618;2023-05-09T06:08:52;8.95;;;4.82;;
72649;SDS011;61467;50.674;4.618;2023-05-09T06:11:25;8.97;;;4.90;;
72649;SDS011;61467;50.674;4.618;2023-05-09T06:13:57;10.93;;;5.30;;
72649;SDS011;61467;50.674;4.618;2023-05-09T06:16:37;8.00;;;4.25;;
72649;SDS011;61467;50.674;4.618;2023-05-09T06:19:19;11.23;;;5.25;;
72649;SDS011;61467;50.674;4.618;2023-05-09T06:21:58;9.13;;;5.10;;
72649;SDS011;61467;50.674;4.618;2023-05-09T06:24:32;8.43;;;4.57;;
72649;SDS011;61467;50.674;4.618;2023-05-09T06:27:05;10.23;;;5.32;;
72649;SDS011;61467;50.674;4.618;2023-05-09T06:32:30;10.02;;;4.75;;
72649;SDS011;61467;50.674;4.618;2023-05-09T06:35:08;10.13;;;5.00;;
72649;SDS011;61467;50.674;4.618;2023-05-09T06:37:47;10.40;;;5.43;;
72649;SDS011;61467;50.674;4.618;2023-05-09T06:40:27;10.23;;;5.72;;
72649;SDS011;61467;50.674;4.618;2023-05-09T06:43:18;9.60;;;5.57;;
72649;SDS011;61467;50.674;4.618;2023-05-09T06:45:54;10.27;;;5.57;;
72649;SDS011;61467;50.674;4.618;2023-05-09T06:48:44;11.23;;;6.05;;
72649;SDS011;61467;50.674;4.618;2023-05-09T06:51:31;10.33;;;5.77;;
72649;SDS011;61467;50.674;4.618;2023-05-09T06:54:24;11.55;;;6.00;;
72649;SDS011;61467;50.674;4.618;2023-05-09T07:03:17;10.70;;;6.18;;
72649;SDS011;61467;50.674;4.618;2023-05-09T07:05:50;11.63;;;6.40;;
72649;SDS011;61467;50.674;4.618;2023-05-09T07:08:25;12.18;;;6.80;;
72649;SDS011;61467;50.674;4.618;2023-05-09T07:11:12;14.32;;;6.82;;
72649;SDS011;61467;50.674;4.618;2023-05-09T07:14:11;13.52;;;6.10;;
72649;SDS011;61467;50.674;4.618;2023-05-09T07:17:14;13.90;;;6.20;;
72649;SDS011;61467;50.674;4.618;2023-05-09T07:20:13;13.57;;;6.90;;
72649;SDS011;61467;50.674;4.618;2023-05-09T07:26:00;13.80;;;6.75;;
72649;SDS011;61467;50.674;4.618;2023-05-09T07:31:40;11.13;;;6.50;;
72649;SDS011;61467;50.674;4.618;2023-05-09T07:34:26;11.43;;;5.53;;
72649;SDS011;61467;50.674;4.618;2023-05-09T07:36:56;10.43;;;5.90;;
72649;SDS011;61467;50.674;4.618;2023-05-09T07:39:33;11.68;;;5.57;;
72649;SDS011;61467;50.674;4.618;2023-05-09T07:45:25;10.65;;;6.07;;
72649;SDS011;61467;50.674;4.618;2023-05-09T07:51:08;13.25;;;5.55;;
72649;SDS011;61467;50.674;4.618;2023-05-09T07:53:37;10.05;;;5.38;;
72649;SDS011;61467;50.674;4.618;2023-05-09T07:56:22;10.75;;;5.25;;
72649;SDS011;61467;50.674;4.618;2023-05-09T07:59:02;11.15;;;5.38;;
72649;SDS011;61467;50.674;4.618;2023-05-09T08:01:37;9.03;;;4.90;;
72649;SDS011;61467;50.674;4.618;2023-05-09T08:04:08;9.40;;;4.45;;
72649;SDS011;61467;50.674;4.618;2023-05-09T08:09:52;9.38;;;4.70;;
72649;SDS011;61467;50.674;4.618;2023-05-09T08:12:43;10.32;;;4.80;;
72649;SDS011;61467;50.674;4.618;2023-05-09T08:15:21;9.50;;;4.50;;
72649;SDS011;61467;50.674;4.618;2023-05-09T08:17:52;10.27;;;5.40;;
72649;SDS011;61467;50.674;4.618;2023-05-09T08:20:25;8.80;;;4.40;;
72649;SDS011;61467;50.674;4.618;2023-05-09T08:22:57;10.55;;;4.55;;
72649;SDS011;61467;50.674;4.618;2023-05-09T08:25:27;10.27;;;4.07;;
72649;SDS011;61467;50.674;4.618;2023-05-09T08:27:56;8.50;;;3.63;;
72649;SDS011;61467;50.674;4.618;2023-05-09T08:30:24;8.18;;;3.20;;
72649;SDS011;61467;50.674;4.618;2023-05-09T08:32:56;9.25;;;3.50;;
72649;SDS011;61467;50.674;4.618;2023-05-09T08:35:34;9.98;;;3.78;;
72649;SDS011;61467;50.674;4.618;2023-05-09T08:38:14;7.90;;;3.40;;
72649;SDS011;61467;50.674;4.618;2023-05-09T08:40:52;9.93;;;4.23;;
72649;SDS011;61467;50.674;4.618;2023-05-09T08:43:31;8.27;;;3.42;;
72649;SDS011;61467;50.674;4.618;2023-05-09T08:46:07;8.38;;;3.30;;
72649;SDS011;61467;50.674;4.618;2023-05-09T08:48:40;7.13;;;2.70;;
72649;SDS011;61467;50.674;4.618;2023-05-09T08:51:15;7.72;;;3.15;;
72649;SDS011;61467;50.674;4.618;2023-05-09T08:56:25;8.32;;;2.85;;
72649;SDS011;61467;50.674;4.618;2023-05-09T08:58:59;11.85;;;3.40;;
72649;SDS011;61467;50.674;4.618;2023-05-09T09:01:34;6.35;;;2.65;;
72649;SDS011;61467;50.674;4.618;2023-05-09T09:04:08;7.93;;;2.70;;
72649;SDS011;61467;50.674;4.618;2023-05-09T09:06:52;6.07;;;2.27;;
72649;SDS011;61467;50.674;4.618;2023-05-09T09:09:45;9.95;;;2.67;;
72649;SDS011;61467;50.674;4.618;2023-05-09T09:12:50;5.93;;;2.30;;
72649;SDS011;61467;50.674;4.618;2023-05-09T09:15:28;6.53;;;2.40;;
72649;SDS011;61467;50.674;4.618;2023-05-09T09:21:00;7.40;;;2.53;;
72649;SDS011;61467;50.674;4.618;2023-05-09T09:23:50;6.60;;;2.30;;
72649;SDS011;61467;50.674;4.618;2023-05-09T09:33:32;7.85;;;2.22;;
72649;SDS011;61467;50.674;4.618;2023-05-09T09:36:36;7.00;;;2.00;;
72649;SDS011;61467;50.674;4.618;2023-05-09T09:39:31;7.78;;;2.10;;
72649;SDS011;61467;50.674;4.618;2023-05-09T09:42:41;6.72;;;1.98;;
72649;SDS011;61467;50.674;4.618;2023-05-09T09:45:49;6.13;;;1.77;;
72649;SDS011;61467;50.674;4.618;2023-05-09T09:48:51;11.70;;;1.80;;
72649;SDS011;61467;50.674;4.618;2023-05-09T09:51:41;5.87;;;1.87;;
72649;SDS011;61467;50.674;4.618;2023-05-09T09:54:56;6.68;;;2.30;;
72649;SDS011;61467;50.674;4.618;2023-05-09T09:57:53;5.15;;;1.80;;
72649;SDS011;61467;50.674;4.618;2023-05-09T10:01:08;7.65;;;1.90;;
72649;SDS011;61467;50.674;4.618;2023-05-09T10:04:14;7.70;;;2.42;;
72649;SDS011;61467;50.674;4.618;2023-05-09T10:10:12;5.90;;;2.47;;
72649;SDS011;61467;50.674;4.618;2023-05-09T10:16:16;7.43;;;2.33;;
72649;SDS011;61467;50.674;4.618;2023-05-09T10:22:30;6.83;;;2.70;;
72649;SDS011;61467;50.674;4.618;2023-05-09T10:25:38;6.55;;;2.67;;
72649;SDS011;61467;50.674;4.618;2023-05-09T10:53:30;6.32;;;2.58;;
72649;SDS011;61467;50.674;4.618;2023-05-09T10:59:56;7.30;;;2.90;;
72649;SDS011;61467;50.674;4.618;2023-05-09T11:03:06;6.15;;;2.88;;
72649;SDS011;61467;50.674;4.618;2023-05-09T11:12:18;7.93;;;3.38;;
72649;SDS011;61467;50.674;4.618;2023-05-09T11:15:24;7.03;;;2.90;;
72649;SDS011;61467;50.674;4.618;2023-05-09T11:18:47;8.10;;;3.35;;
72649;SDS011;61467;50.674;4.618;2023-05-09T11:25:23;8.00;;;3.55;;
72649;SDS011;61467;50.674;4.618;2023-05-09T11:28:28;7.28;;;2.78;;
72649;SDS011;61467;50.674;4.618;2023-05-09T11:34:24;7.80;;;3.13;;
72649;SDS011;61467;50.674;4.618;2023-05-09T11:37:16;7.43;;;3.90;;
72649;SDS011;61467;50.674;4.618;2023-05-09T11:43:37;7.03;;;3.58;;
72649;SDS011;61467;50.674;4.618;2023-05-09T11:46:25;5.70;;;2.00;;
72649;SDS011;61467;50.674;4.618;2023-05-09T11:49:24;10.05;;;2.80;;
72649;SDS011;61467;50.674;4.618;2023-05-09T11:52:38;7.57;;;3.23;;
72649;SDS011;61467;50.674;4.618;2023-05-09T11:55:40;9.05;;;2.97;;
72649;SDS011;61467;50.674;4.618;2023-05-09T11:58:41;7.68;;;2.88;;
72649;SDS011;61467;50.674;4.618;2023-05-09T12:01:45;8.05;;;3.13;;
72649;SDS011;61467;50.674;4.618;2023-05-09T12:04:27;6.97;;;2.80;;
72649;SDS011;61467;50.674;4.618;2023-05-09T12:07:30;7.83;;;3.57;;
72649;SDS011;61467;50.674;4.618;2023-05-09T12:10:34;7.78;;;3.72;;
72649;SDS011;61467;50.674;4.618;2023-05-09T12:13:39;8.85;;;3.70;;
72649;SDS011;61467;50.674;4.618;2023-05-09T12:16:45;6.55;;;2.53;;
72649;SDS011;61467;50.674;4.618;2023-05-09T12:19:32;6.10;;;2.40;;
72649;SDS011;61467;50.674;4.618;2023-05-09T12:22:26;5.77;;;2.23;;
72649;SDS011;61467;50.674;4.618;2023-05-09T12:25:28;8.23;;;2.45;;
72649;SDS011;61467;50.674;4.618;2023-05-09T12:28:44;4.80;;;1.48;;
72649;SDS011;61467;50.674;4.618;2023-05-09T12:31:38;6.28;;;1.38;;
72649;SDS011;61467;50.674;4.618;2023-05-09T12:34:43;6.40;;;1.40;;
72649;SDS011;61467;50.674;4.618;2023-05-09T12:44:16;5.13;;;1.20;;
72649;SDS011;61467;50.674;4.618;2023-05-09T12:50:53;4.82;;;1.55;;
72649;SDS011;61467;50.674;4.618;2023-05-09T12:54:03;4.60;;;1.20;;
72649;SDS011;61467;50.674;4.618;2023-05-09T12:57:19;6.03;;;1.63;;
72649;SDS011;61467;50.674;4.618;2023-05-09T13:00:16;5.85;;;1.30;;
72649;SDS011;61467;50.674;4.618;2023-05-09T13:03:21;4.90;;;1.70;;
72649;SDS011;61467;50.674;4.618;2023-05-09T13:06:25;6.40;;;1.60;;
72649;SDS011;61467;50.674;4.618;2023-05-09T13:09:24;5.17;;;1.67;;
72649;SDS011;61467;50.674;4.618;2023-05-09T13:15:22;4.03;;;1.15;;
72649;SDS011;61467;50.674;4.618;2023-05-09T13:18:22;4.63;;;1.30;;
72649;SDS011;61467;50.674;4.618;2023-05-09T13:21:26;5.38;;;1.65;;
72649;SDS011;61467;50.674;4.618;2023-05-09T13:24:30;4.93;;;1.37;;
72649;SDS011;61467;50.674;4.618;2023-05-09T13:27:34;4.22;;;1.17;;
72649;SDS011;61467;50.674;4.618;2023-05-09T13:33:34;6.18;;;1.40;;
72649;SDS011;61467;50.674;4.618;2023-05-09T13:36:35;5.47;;;1.50;;
72649;SDS011;61467;50.674;4.618;2023-05-09T13:39:39;4.60;;;1.60;;
72649;SDS011;61467;50.674;4.618;2023-05-09T13:55:34;3.53;;;1.13;;
72649;SDS011;61467;50.674;4.618;2023-05-09T13:58:30;4.90;;;1.10;;
72649;SDS011;61467;50.674;4.618;2023-05-09T14:04:25;3.47;;;0.98;;
72649;SDS011;61467;50.674;4.618;2023-05-09T14:07:23;4.43;;;1.17;;
72649;SDS011;61467;50.674;4.618;2023-05-09T14:13:45;3.78;;;0.98;;
72649;SDS011;61467;50.674;4.618;2023-05-09T14:16:53;4.30;;;1.25;;
72649;SDS011;61467;50.674;4.618;2023-05-09T14:19:38;6.15;;;1.30;;
72649;SDS011;61467;50.674;4.618;2023-05-09T14:22:41;4.90;;;1.10;;
72649;SDS011;61467;50.674;4.618;2023-05-09T14:25:45;3.53;;;1.20;;
72649;SDS011;61467;50.674;4.618;2023-05-09T14:28:54;4.70;;;1.20;;
72649;SDS011;61467;50.674;4.618;2023-05-09T14:31:52;4.85;;;1.05;;
72649;SDS011;61467;50.674;4.618;2023-05-09T14:37:40;4.22;;;0.98;;
72649;SDS011;61467;50.674;4.618;2023-05-09T14:40:16;4.03;;;1.20;;
72649;SDS011;61467;50.674;4.618;2023-05-09T14:43:24;2.58;;;0.77;;
72649;SDS011;61467;50.674;4.618;2023-05-09T14:46:30;5.47;;;0.85;;
72649;SDS011;61467;50.674;4.618;2023-05-09T14:55:54;3.00;;;0.83;;
72649;SDS011;61467;50.674;4.618;2023-05-09T15:02:14;3.80;;;0.90;;
72649;SDS011;61467;50.674;4.618;2023-05-09T15:08:30;4.90;;;1.30;;
72649;SDS011;61467;50.674;4.618;2023-05-09T15:11:30;4.70;;;1.27;;
72649;SDS011;61467;50.674;4.618;2023-05-09T15:14:30;4.15;;;0.98;;
72649;SDS011;61467;50.674;4.618;2023-05-09T15:17:34;3.00;;;0.90;;
72649;SDS011;61467;50.674;4.618;2023-05-09T16:06:11;3.42;;;0.90;;
72649;SDS011;61467;50.674;4.618;2023-05-09T16:09:18;5.53;;;1.10;;
72649;SDS011;61467;50.674;4.618;2023-05-09T16:12:18;2.93;;;0.93;;
72649;SDS011;61467;50.674;4.618;2023-05-09T16:15:24;4.38;;;0.93;;
72649;SDS011;61467;50.674;4.618;2023-05-09T16:21:35;4.15;;;1.20;;
72649;SDS011;61467;50.674;4.618;2023-05-09T16:24:36;5.30;;;1.73;;
72649;SDS011;61467;50.674;4.618;2023-05-09T16:30:43;4.30;;;1.30;;
72649;SDS011;61467;50.674;4.618;2023-05-09T16:33:58;2.85;;;1.10;;
72649;SDS011;61467;50.674;4.618;2023-05-09T16:36:56;12.23;;;1.40;;
72649;SDS011;61467;50.674;4.618;2023-05-09T16:40:05;3.17;;;0.98;;
72649;SDS011;61467;50.674;4.618;2023-05-09T16:43:07;4.27;;;1.30;;
72649;SDS011;61467;50.674;4.618;2023-05-09T16:46:10;4.45;;;1.25;;
72649;SDS011;61467;50.674;4.618;2023-05-09T16:49:10;5.50;;;1.80;;
72649;SDS011;61467;50.674;4.618;2023-05-09T16:52:10;4.22;;;1.70;;
72649;SDS011;61467;50.674;4.618;2023-05-09T16:55:10;5.03;;;1.80;;
72649;SDS011;61467;50.674;4.618;2023-05-09T16:57:59;4.50;;;1.70;;
72649;SDS011;61467;50.674;4.618;2023-05-09T17:04:05;6.03;;;1.63;;
72649;SDS011;61467;50.674;4.618;2023-05-09T17:07:13;6.05;;;2.00;;
72649;SDS011;61467;50.674;4.618;2023-05-09T17:10:09;5.45;;;2.00;;
72649;SDS011;61467;50.674;4.618;2023-05-09T17:13:14;3.03;;;0.90;;
72649;SDS011;61467;50.674;4.618;2023-05-09T17:16:21;4.50;;;1.25;;
72649;SDS011;61467;50.674;4.618;2023-05-09T17:19:18;3.53;;;1.00;;
72649;SDS011;61467;50.674;4.618;2023-05-09T17:25:21;4.68;;;1.42;;
72649;SDS011;61467;50.674;4.618;2023-05-09T17:28:24;4.70;;;1.47;;
72649;SDS011;61467;50.674;4.618;2023-05-09T17:31:22;4.60;;;1.63;;
72649;SDS011;61467;50.674;4.618;2023-05-09T17:34:24;5.15;;;1.85;;
72649;SDS011;61467;50.674;4.618;2023-05-09T17:37:20;6.80;;;1.48;;
72649;SDS011;61467;50.674;4.618;2023-05-09T17:40:27;5.18;;;1.80;;
72649;SDS011;61467;50.674;4.618;2023-05-09T17:43:36;5.60;;;1.53;;
72649;SDS011;61467;50.674;4.618;2023-05-09T17:46:37;6.40;;;2.35;;
72649;SDS011;61467;50.674;4.618;2023-05-09T17:49:46;5.05;;;1.70;;
72649;SDS011;61467;50.674;4.618;2023-05-09T17:55:56;5.65;;;2.20;;
72649;SDS011;61467;50.674;4.618;2023-05-09T17:59:02;6.27;;;2.00;;
72649;SDS011;61467;50.674;4.618;2023-05-09T18:01:52;5.10;;;2.08;;
72649;SDS011;61467;50.674;4.618;2023-05-09T18:07:55;6.90;;;1.77;;
72649;SDS011;61467;50.674;4.618;2023-05-09T18:10:51;5.95;;;2.30;;
72649;SDS011;61467;50.674;4.618;2023-05-09T18:13:42;5.23;;;2.00;;
72649;SDS011;61467;50.674;4.618;2023-05-09T18:16:48;6.57;;;2.40;;
72649;SDS011;61467;50.674;4.618;2023-05-09T18:19:31;7.18;;;2.88;;
72649;SDS011;61467;50.674;4.618;2023-05-09T18:22:37;6.57;;;2.90;;
72649;SDS011;61467;50.674;4.618;2023-05-09T18:28:54;6.67;;;2.57;;
72649;SDS011;61467;50.674;4.618;2023-05-09T18:31:52;7.68;;;3.22;;
72649;SDS011;61467;50.674;4.618;2023-05-09T18:34:58;7.68;;;3.40;;
72649;SDS011;61467;50.674;4.618;2023-05-09T18:38:05;7.10;;;3.10;;
72649;SDS011;61467;50.674;4.618;2023-05-09T18:41:04;6.88;;;3.25;;
72649;SDS011;61467;50.674;4.618;2023-05-09T18:44:10;7.57;;;3.30;;
72649;SDS011;61467;50.674;4.618;2023-05-09T18:47:05;7.70;;;3.42;;
72649;SDS011;61467;50.674;4.618;2023-05-09T18:50:12;8.80;;;3.50;;
72649;SDS011;61467;50.674;4.618;2023-05-09T18:53:18;7.57;;;3.88;;
72649;SDS011;61467;50.674;4.618;2023-05-09T18:56:19;6.75;;;3.28;;
72649;SDS011;61467;50.674;4.618;2023-05-09T18:59:08;9.33;;;3.77;;
72649;SDS011;61467;50.674;4.618;2023-05-09T19:08:15;9.98;;;4.50;;
72649;SDS011;61467;50.674;4.618;2023-05-09T19:14:35;7.50;;;3.70;;
72649;SDS011;61467;50.674;4.618;2023-05-09T19:17:29;9.27;;;4.15;;
72649;SDS011;61467;50.674;4.618;2023-05-09T19:23:36;9.07;;;4.63;;
72649;SDS011;61467;50.674;4.618;2023-05-09T19:26:37;9.40;;;4.65;;
72649;SDS011;61467;50.674;4.618;2023-05-09T19:29:51;9.83;;;4.90;;
72649;SDS011;61467;50.674;4.618;2023-05-09T19:32:52;9.55;;;5.07;;
72649;SDS011;61467;50.674;4.618;2023-05-09T19:35:58;10.05;;;5.22;;
72649;SDS011;61467;50.674;4.618;2023-05-09T19:38:59;11.60;;;5.55;;
72649;SDS011;61467;50.674;4.618;2023-05-09T19:48:25;10.75;;;5.15;;
72649;SDS011;61467;50.674;4.618;2023-05-09T19:54:33;10.18;;;4.93;;
72649;SDS011;61467;50.674;4.618;2023-05-09T20:00:29;9.30;;;4.03;;
72649;SDS011;61467;50.674;4.618;2023-05-09T20:06:47;9.05;;;4.00;;
72649;SDS011;61467;50.674;4.618;2023-05-09T20:12:46;8.82;;;3.22;;
72649;SDS011;61467;50.674;4.618;2023-05-09T20:15:50;8.60;;;3.27;;
72649;SDS011;61467;50.674;4.618;2023-05-09T20:18:56;8.00;;;3.15;;
72649;SDS011;61467;50.674;4.618;2023-05-09T20:22:13;8.90;;;3.53;;
72649;SDS011;61467;50.674;4.618;2023-05-09T20:25:11;7.78;;;3.72;;
72649;SDS011;61467;50.674;4.618;2023-05-09T20:31:08;8.40;;;3.20;;
72649;SDS011;61467;50.674;4.618;2023-05-09T20:33:49;7.88;;;3.10;;
72649;SDS011;61467;50.674;4.618;2023-05-09T20:36:56;6.65;;;3.20;;
72649;SDS011;61467;50.674;4.618;2023-05-09T20:40:10;6.55;;;2.85;;
72649;SDS011;61467;50.674;4.618;2023-05-09T20:43:05;8.38;;;2.53;;
72649;SDS011;61467;50.674;4.618;2023-05-09T20:46:00;7.23;;;2.70;;
72649;SDS011;61467;50.674;4.618;2023-05-09T20:49:03;6.88;;;2.58;;
72649;SDS011;61467;50.674;4.618;2023-05-09T20:52:08;6.20;;;2.70;;
72649;SDS011;61467;50.674;4.618;2023-05-09T20:55:14;6.18;;;2.10;;
72649;SDS011;61467;50.674;4.618;2023-05-09T20:58:20;7.13;;;2.70;;
72649;SDS011;61467;50.674;4.618;2023-05-09T21:01:09;6.63;;;2.30;;
72649;SDS011;61467;50.674;4.618;2023-05-09T21:04:02;6.63;;;2.30;;
72649;SDS011;61467;50.674;4.618;2023-05-09T21:07:11;5.60;;;1.95;;
72649;SDS011;61467;50.674;4.618;2023-05-09T21:10:23;5.55;;;1.90;;
72649;SDS011;61467;50.674;4.618;2023-05-09T21:13:18;6.10;;;2.13;;
72649;SDS011;61467;50.674;4.618;2023-05-09T21:16:18;5.87;;;2.13;;
72649;SDS011;61467;50.674;4.618;2023-05-09T21:19:15;6.60;;;2.30;;
72649;SDS011;61467;50.674;4.618;2023-05-09T21:28:09;5.65;;;1.92;;
72649;SDS011;61467;50.674;4.618;2023-05-09T21:30:58;6.67;;;2.03;;
72649;SDS011;61467;50.674;4.618;2023-05-09T21:34:01;9.75;;;2.28;;
72649;SDS011;61467;50.674;4.618;2023-05-09T21:40:09;6.63;;;2.70;;
72649;SDS011;61467;50.674;4.618;2023-05-09T21:43:17;6.82;;;2.90;;
72649;SDS011;61467;50.674;4.618;2023-05-09T21:49:21;8.02;;;2.72;;
72649;SDS011;61467;50.674;4.618;2023-05-09T21:58:38;8.32;;;2.88;;
72649;SDS011;61467;50.674;4.618;2023-05-09T22:04:26;7.45;;;2.60;;
72649;SDS011;61467;50.674;4.618;2023-05-09T22:07:19;7.45;;;3.00;;
72649;SDS011;61467;50.674;4.618;2023-05-09T22:13:11;8.00;;;3.30;;
72649;SDS011;61467;50.674;4.618;2023-05-09T22:16:25;8.07;;;3.37;;
72649;SDS011;61467;50.674;4.618;2023-05-09T22:19:23;9.27;;;3.50;;
72649;SDS011;61467;50.674;4.618;2023-05-09T22:22:32;8.98;;;4.07;;
72649;SDS011;61467;50.674;4.618;2023-05-09T22:25:41;9.73;;;3.95;;
72649;SDS011;61467;50.674;4.618;2023-05-09T22:28:50;13.43;;;4.18;;
72649;SDS011;61467;50.674;4.618;2023-05-09T22:31:55;9.03;;;4.40;;
72649;SDS011;61467;50.674;4.618;2023-05-09T22:34:47;10.70;;;5.00;;
72649;SDS011;61467;50.674;4.618;2023-05-09T22:37:53;10.57;;;4.88;;
72649;SDS011;61467;50.674;4.618;2023-05-09T22:43:55;10.52;;;4.78;;
72649;SDS011;61467;50.674;4.618;2023-05-09T22:46:47;10.47;;;4.83;;
72649;SDS011;61467;50.674;4.618;2023-05-09T22:49:52;10.25;;;4.90;;
72649;SDS011;61467;50.674;4.618;2023-05-09T22:52:58;11.05;;;4.35;;
72649;SDS011;61467;50.674;4.618;2023-05-09T22:55:54;11.52;;;5.05;;
72649;SDS011;61467;50.674;4.618;2023-05-09T22:58:58;10.05;;;5.00;;
72649;SDS011;61467;50.674;4.618;2023-05-09T23:01:53;12.90;;;5.10;;
72649;SDS011;61467;50.674;4.618;2023-05-09T23:04:43;10.13;;;4.90;;
72649;SDS011;61467;50.674;4.618;2023-05-09T23:07:35;11.68;;;4.68;;
72649;SDS011;61467;50.674;4.618;2023-05-09T23:13:42;9.40;;;4.28;;
72649;SDS011;61467;50.674;4.618;2023-05-09T23:16:51;11.40;;;5.00;;
72649;SDS011;61467;50.674;4.618;2023-05-09T23:22:47;11.95;;;5.18;;
72649;SDS011;61467;50.674;4.618;2023-05-09T23:28:52;17.90;;;5.55;;
72649;SDS011;61467;50.674;4.618;2023-05-09T23:31:46;11.60;;;5.27;;
72649;SDS011;61467;50.674;4.618;2023-05-09T23:34:49;12.18;;;6.10;;
72649;SDS011;61467;50.674;4.618;2023-05-09T23:37:46;12.95;;;5.93;;
72649;SDS011;61467;50.674;4.618;2023-05-09T23:47:14;14.87;;;6.60;;
72649;SDS011;61467;50.674;4.618;2023-05-09T23:50:03;12.85;;;5.55;;
72649;SDS011;61467;50.674;4.618;2023-05-09T23:53:13;15.20;;;6.45;;
72649;SDS011;61467;50.674;4.618;2023-05-09T23:56:20;12.55;;;5.38;;
